sensor_id;sensor_type;location;lat;lon;timestamp;P1;durP1;ratioP1;P2;durP2;ratioP2
71108;SDS011;59614;51.012;-1.648;2022-11-04T00:01:30;21.83;;;8.98;;
71108;SDS011;59614;51.012;-1.648;2022-11-04T00:03:56;19.38;;;8.55;;
71108;SDS011;59614;51.012;-1.648;2022-11-04T00:06:21;16.88;;;8.55;;
71108;SDS011;59614;51.012;-1.648;2022-11-04T00:08:52;18.90;;;8.85;;
71108;SDS011;59614;51.012;-1.648;2022-11-04T00:11:19;18.65;;;8.85;;
71108;SDS011;59614;51.012;-1.648;2022-11-04T00:14:04;19.65;;;7.85;;
71108;SDS011;59614;51.012;-1.648;2022-11-04T00:16:30;20.27;;;7.82;;
71108;SDS011;59614;51.012;-1.648;2022-11-04T00:19:14;21.92;;;9.00;;
71108;SDS011;59614;51.012;-1.648;2022-11-04T00:21:40;17.95;;;8.10;;
71108;SDS011;59614;51.012;-1.648;2022-11-04T00:24:24;17.27;;;8.10;;
71108;SDS011;59614;51.012;-1.648;2022-11-04T00:27:08;19.73;;;8.00;;
71108;SDS011;59614;51.012;-1.648;2022-11-04T00:29:57;16.63;;;8.00;;
71108;SDS011;59614;51.012;-1.648;2022-11-04T00:32:23;17.70;;;7.72;;
71108;SDS011;59614;51.012;-1.648;2022-11-04T00:35:08;18.83;;;8.38;;
71108;SDS011;59614;51.012;-1.648;2022-11-04T00:37:37;18.20;;;7.40;;
71108;SDS011;59614;51.012;-1.648;2022-11-04T00:40:04;28.75;;;8.38;;
71108;SDS011;59614;51.012;-1.648;2022-11-04T00:42:31;19.48;;;7.47;;
71108;SDS011;59614;51.012;-1.648;2022-11-04T00:44:57;15.57;;;7.05;;
71108;SDS011;59614;51.012;-1.648;2022-11-04T00:47:22;19.88;;;7.10;;
71108;SDS011;59614;51.012;-1.648;2022-11-04T00:49:48;16.33;;;7.65;;
71108;SDS011;59614;51.012;-1.648;2022-11-04T00:52:13;19.40;;;7.70;;
71108;SDS011;59614;51.012;-1.648;2022-11-04T00:54:39;16.42;;;7.63;;
71108;SDS011;59614;51.012;-1.648;2022-11-04T00:57:07;21.33;;;8.13;;
71108;SDS011;59614;51.012;-1.648;2022-11-04T00:59:34;23.83;;;8.88;;
71108;SDS011;59614;51.012;-1.648;2022-11-04T01:01:59;22.58;;;8.88;;
71108;SDS011;59614;51.012;-1.648;2022-11-04T01:04:24;17.65;;;8.55;;
71108;SDS011;59614;51.012;-1.648;2022-11-04T01:06:50;19.77;;;8.90;;
71108;SDS011;59614;51.012;-1.648;2022-11-04T01:09:15;25.15;;;7.82;;
71108;SDS011;59614;51.012;-1.648;2022-11-04T01:11:41;17.40;;;7.65;;
71108;SDS011;59614;51.012;-1.648;2022-11-04T01:14:06;18.70;;;7.43;;
71108;SDS011;59614;51.012;-1.648;2022-11-04T01:16:32;18.98;;;7.15;;
71108;SDS011;59614;51.012;-1.648;2022-11-04T01:18:58;15.43;;;5.95;;
71108;SDS011;59614;51.012;-1.648;2022-11-04T01:21:23;13.48;;;5.75;;
71108;SDS011;59614;51.012;-1.648;2022-11-04T01:23:49;16.38;;;6.05;;
71108;SDS011;59614;51.012;-1.648;2022-11-04T01:26:16;13.35;;;5.10;;
71108;SDS011;59614;51.012;-1.648;2022-11-04T01:28:43;15.63;;;5.20;;
71108;SDS011;59614;51.012;-1.648;2022-11-04T01:31:10;18.23;;;5.60;;
71108;SDS011;59614;51.012;-1.648;2022-11-04T01:33:38;16.42;;;5.90;;
71108;SDS011;59614;51.012;-1.648;2022-11-04T01:36:04;14.23;;;5.38;;
71108;SDS011;59614;51.012;-1.648;2022-11-04T01:38:31;13.13;;;4.95;;
71108;SDS011;59614;51.012;-1.648;2022-11-04T01:40:57;13.30;;;5.43;;
71108;SDS011;59614;51.012;-1.648;2022-11-04T01:43:23;15.10;;;5.65;;
71108;SDS011;59614;51.012;-1.648;2022-11-04T01:46:14;13.45;;;4.93;;
71108;SDS011;59614;51.012;-1.648;2022-11-04T01:51:53;14.25;;;5.53;;
71108;SDS011;59614;51.012;-1.648;2022-11-04T01:54:25;13.77;;;5.47;;
71108;SDS011;59614;51.012;-1.648;2022-11-04T01:56:51;12.32;;;5.00;;
71108;SDS011;59614;51.012;-1.648;2022-11-04T01:59:23;13.07;;;5.90;;
71108;SDS011;59614;51.012;-1.648;2022-11-04T02:01:52;16.10;;;5.53;;
71108;SDS011;59614;51.012;-1.648;2022-11-04T02:04:18;13.90;;;5.75;;
71108;SDS011;59614;51.012;-1.648;2022-11-04T02:07:00;17.17;;;5.65;;
71108;SDS011;59614;51.012;-1.648;2022-11-04T02:09:30;13.25;;;4.72;;
71108;SDS011;59614;51.012;-1.648;2022-11-04T02:11:56;9.70;;;4.10;;
71108;SDS011;59614;51.012;-1.648;2022-11-04T02:14:40;10.57;;;3.88;;
71108;SDS011;59614;51.012;-1.648;2022-11-04T02:33:53;14.40;;;4.70;;
71108;SDS011;59614;51.012;-1.648;2022-11-04T02:36:52;15.68;;;5.03;;
71108;SDS011;59614;51.012;-1.648;2022-11-04T02:39:47;16.17;;;6.32;;
71108;SDS011;59614;51.012;-1.648;2022-11-04T02:42:27;14.23;;;6.78;;
71108;SDS011;59614;51.012;-1.648;2022-11-04T02:48:03;16.58;;;6.30;;
71108;SDS011;59614;51.012;-1.648;2022-11-04T02:50:44;15.25;;;6.40;;
71108;SDS011;59614;51.012;-1.648;2022-11-04T02:53:17;13.40;;;5.32;;
71108;SDS011;59614;51.012;-1.648;2022-11-04T02:55:56;15.27;;;5.28;;
71108;SDS011;59614;51.012;-1.648;2022-11-04T02:58:27;10.48;;;4.47;;
71108;SDS011;59614;51.012;-1.648;2022-11-04T03:00:57;11.13;;;5.20;;
71108;SDS011;59614;51.012;-1.648;2022-11-04T03:03:25;11.70;;;4.70;;
71108;SDS011;59614;51.012;-1.648;2022-11-04T03:05:56;11.27;;;4.35;;
71108;SDS011;59614;51.012;-1.648;2022-11-04T03:08:26;15.70;;;4.30;;
71108;SDS011;59614;51.012;-1.648;2022-11-04T03:11:03;12.40;;;4.35;;
71108;SDS011;59614;51.012;-1.648;2022-11-04T03:13:37;23.75;;;4.90;;
71108;SDS011;59614;51.012;-1.648;2022-11-04T03:16:10;16.27;;;6.45;;
71108;SDS011;59614;51.012;-1.648;2022-11-04T03:21:36;16.75;;;5.63;;
71108;SDS011;59614;51.012;-1.648;2022-11-04T03:24:06;15.52;;;5.80;;
71108;SDS011;59614;51.012;-1.648;2022-11-04T03:26:36;16.98;;;6.55;;
71108;SDS011;59614;51.012;-1.648;2022-11-04T03:29:17;12.77;;;6.07;;
71108;SDS011;59614;51.012;-1.648;2022-11-04T03:32:02;15.38;;;6.43;;
71108;SDS011;59614;51.012;-1.648;2022-11-04T03:34:39;15.38;;;7.68;;
71108;SDS011;59614;51.012;-1.648;2022-11-04T03:37:05;18.23;;;8.00;;
71108;SDS011;59614;51.012;-1.648;2022-11-04T03:39:30;21.52;;;8.00;;
71108;SDS011;59614;51.012;-1.648;2022-11-04T03:41:57;17.90;;;7.43;;
71108;SDS011;59614;51.012;-1.648;2022-11-04T03:44:26;25.55;;;8.48;;
71108;SDS011;59614;51.012;-1.648;2022-11-04T03:46:53;20.37;;;7.60;;
71108;SDS011;59614;51.012;-1.648;2022-11-04T03:49:20;24.33;;;7.90;;
71108;SDS011;59614;51.012;-1.648;2022-11-04T03:51:48;19.45;;;8.00;;
71108;SDS011;59614;51.012;-1.648;2022-11-04T03:54:14;26.10;;;8.80;;
71108;SDS011;59614;51.012;-1.648;2022-11-04T03:59:13;17.50;;;9.23;;
71108;SDS011;59614;51.012;-1.648;2022-11-04T04:01:59;18.02;;;8.48;;
71108;SDS011;59614;51.012;-1.648;2022-11-04T04:04:43;15.82;;;7.28;;
71108;SDS011;59614;51.012;-1.648;2022-11-04T04:07:34;18.52;;;7.90;;
71108;SDS011;59614;51.012;-1.648;2022-11-04T04:16:28;14.48;;;6.65;;
71108;SDS011;59614;51.012;-1.648;2022-11-04T04:21:26;16.80;;;6.70;;
71108;SDS011;59614;51.012;-1.648;2022-11-04T04:23:56;18.50;;;6.93;;
71108;SDS011;59614;51.012;-1.648;2022-11-04T04:26:42;24.60;;;7.40;;
71108;SDS011;59614;51.012;-1.648;2022-11-04T04:29:29;15.63;;;7.47;;
71108;SDS011;59614;51.012;-1.648;2022-11-04T04:31:55;21.88;;;7.13;;
71108;SDS011;59614;51.012;-1.648;2022-11-04T04:34:25;22.77;;;6.75;;
71108;SDS011;59614;51.012;-1.648;2022-11-04T04:39:37;17.77;;;6.93;;
71108;SDS011;59614;51.012;-1.648;2022-11-04T04:42:24;16.70;;;6.15;;
71108;SDS011;59614;51.012;-1.648;2022-11-04T04:45:09;16.10;;;6.00;;
71108;SDS011;59614;51.012;-1.648;2022-11-04T04:47:43;20.95;;;6.10;;
71108;SDS011;59614;51.012;-1.648;2022-11-04T04:50:13;17.95;;;6.22;;
71108;SDS011;59614;51.012;-1.648;2022-11-04T04:52:41;18.67;;;5.78;;
71108;SDS011;59614;51.012;-1.648;2022-11-04T04:55:10;21.15;;;4.97;;
71108;SDS011;59614;51.012;-1.648;2022-11-04T04:57:37;14.95;;;5.60;;
71108;SDS011;59614;51.012;-1.648;2022-11-04T05:00:03;12.45;;;4.53;;
71108;SDS011;59614;51.012;-1.648;2022-11-04T05:02:30;15.95;;;5.88;;
71108;SDS011;59614;51.012;-1.648;2022-11-04T05:04:56;20.23;;;5.07;;
71108;SDS011;59614;51.012;-1.648;2022-11-04T05:07:23;12.23;;;5.15;;
71108;SDS011;59614;51.012;-1.648;2022-11-04T05:09:48;15.88;;;4.82;;
71108;SDS011;59614;51.012;-1.648;2022-11-04T05:12:14;12.18;;;4.45;;
71108;SDS011;59614;51.012;-1.648;2022-11-04T05:14:40;14.85;;;4.20;;
71108;SDS011;59614;51.012;-1.648;2022-11-04T05:17:05;16.27;;;4.35;;
71108;SDS011;59614;51.012;-1.648;2022-11-04T05:19:30;17.80;;;4.70;;
71108;SDS011;59614;51.012;-1.648;2022-11-04T05:21:56;13.18;;;4.47;;
71108;SDS011;59614;51.012;-1.648;2022-11-04T05:24:22;14.43;;;4.90;;
71108;SDS011;59614;51.012;-1.648;2022-11-04T05:26:47;15.13;;;4.40;;
71108;SDS011;59614;51.012;-1.648;2022-11-04T05:29:13;17.42;;;4.40;;
71108;SDS011;59614;51.012;-1.648;2022-11-04T05:31:38;15.30;;;4.93;;
71108;SDS011;59614;51.012;-1.648;2022-11-04T05:34:04;22.10;;;5.57;;
71108;SDS011;59614;51.012;-1.648;2022-11-04T05:36:30;20.45;;;5.30;;
71108;SDS011;59614;51.012;-1.648;2022-11-04T05:38:57;22.02;;;5.20;;
71108;SDS011;59614;51.012;-1.648;2022-11-04T05:41:23;22.10;;;5.75;;
71108;SDS011;59614;51.012;-1.648;2022-11-04T05:43:52;16.33;;;5.50;;
71108;SDS011;59614;51.012;-1.648;2022-11-04T05:46:22;15.52;;;5.78;;
71108;SDS011;59614;51.012;-1.648;2022-11-04T05:48:48;17.98;;;7.43;;
71108;SDS011;59614;51.012;-1.648;2022-11-04T05:51:14;23.25;;;7.82;;
71108;SDS011;59614;51.012;-1.648;2022-11-04T05:53:41;22.77;;;7.45;;
71108;SDS011;59614;51.012;-1.648;2022-11-04T05:56:07;21.27;;;8.15;;
71108;SDS011;59614;51.012;-1.648;2022-11-04T05:58:33;26.13;;;9.10;;
71108;SDS011;59614;51.012;-1.648;2022-11-04T06:01:12;30.00;;;10.65;;
71108;SDS011;59614;51.012;-1.648;2022-11-04T06:03:48;28.08;;;8.80;;
71108;SDS011;59614;51.012;-1.648;2022-11-04T06:06:14;30.60;;;9.98;;
71108;SDS011;59614;51.012;-1.648;2022-11-04T06:08:40;25.25;;;9.27;;
71108;SDS011;59614;51.012;-1.648;2022-11-04T06:11:05;27.35;;;10.23;;
71108;SDS011;59614;51.012;-1.648;2022-11-04T06:13:31;25.42;;;10.13;;
71108;SDS011;59614;51.012;-1.648;2022-11-04T06:15:56;25.65;;;9.05;;
71108;SDS011;59614;51.012;-1.648;2022-11-04T06:18:22;21.90;;;8.75;;
71108;SDS011;59614;51.012;-1.648;2022-11-04T06:20:47;27.35;;;9.70;;
71108;SDS011;59614;51.012;-1.648;2022-11-04T06:23:13;26.27;;;9.82;;
71108;SDS011;59614;51.012;-1.648;2022-11-04T06:25:38;24.83;;;8.73;;
71108;SDS011;59614;51.012;-1.648;2022-11-04T06:28:03;26.30;;;9.23;;
71108;SDS011;59614;51.012;-1.648;2022-11-04T06:30:29;23.52;;;9.32;;
71108;SDS011;59614;51.012;-1.648;2022-11-04T06:32:54;27.35;;;9.70;;
71108;SDS011;59614;51.012;-1.648;2022-11-04T06:35:20;29.20;;;11.20;;
71108;SDS011;59614;51.012;-1.648;2022-11-04T06:37:45;27.98;;;11.07;;
71108;SDS011;59614;51.012;-1.648;2022-11-04T06:40:11;36.53;;;11.50;;
71108;SDS011;59614;51.012;-1.648;2022-11-04T06:42:36;34.42;;;12.15;;
71108;SDS011;59614;51.012;-1.648;2022-11-04T06:45:03;36.65;;;12.20;;
71108;SDS011;59614;51.012;-1.648;2022-11-04T06:47:28;40.85;;;12.60;;
71108;SDS011;59614;51.012;-1.648;2022-11-04T06:49:54;41.60;;;12.90;;
71108;SDS011;59614;51.012;-1.648;2022-11-04T06:52:19;34.95;;;12.20;;
71108;SDS011;59614;51.012;-1.648;2022-11-04T06:54:45;32.95;;;12.27;;
71108;SDS011;59614;51.012;-1.648;2022-11-04T06:57:12;40.45;;;13.20;;
71108;SDS011;59614;51.012;-1.648;2022-11-04T06:59:37;36.63;;;13.20;;
71108;SDS011;59614;51.012;-1.648;2022-11-04T07:02:03;34.40;;;13.93;;
71108;SDS011;59614;51.012;-1.648;2022-11-04T07:04:29;34.28;;;14.02;;
71108;SDS011;59614;51.012;-1.648;2022-11-04T07:06:54;34.03;;;13.02;;
71108;SDS011;59614;51.012;-1.648;2022-11-04T07:09:20;39.25;;;13.43;;
71108;SDS011;59614;51.012;-1.648;2022-11-04T07:11:46;38.65;;;12.75;;
71108;SDS011;59614;51.012;-1.648;2022-11-04T07:14:11;39.78;;;14.68;;
71108;SDS011;59614;51.012;-1.648;2022-11-04T07:16:37;39.22;;;13.50;;
71108;SDS011;59614;51.012;-1.648;2022-11-04T07:19:03;31.98;;;14.40;;
71108;SDS011;59614;51.012;-1.648;2022-11-04T07:21:29;37.20;;;15.35;;
71108;SDS011;59614;51.012;-1.648;2022-11-04T07:23:55;42.30;;;16.75;;
71108;SDS011;59614;51.012;-1.648;2022-11-04T07:26:21;33.53;;;15.38;;
71108;SDS011;59614;51.012;-1.648;2022-11-04T07:28:47;47.60;;;16.02;;
71108;SDS011;59614;51.012;-1.648;2022-11-04T07:31:12;36.13;;;15.77;;
71108;SDS011;59614;51.012;-1.648;2022-11-04T07:33:39;41.42;;;17.90;;
71108;SDS011;59614;51.012;-1.648;2022-11-04T07:36:05;42.28;;;17.58;;
71108;SDS011;59614;51.012;-1.648;2022-11-04T07:38:33;33.53;;;16.90;;
71108;SDS011;59614;51.012;-1.648;2022-11-04T07:40:59;45.97;;;18.90;;
71108;SDS011;59614;51.012;-1.648;2022-11-04T07:43:26;48.85;;;17.55;;
71108;SDS011;59614;51.012;-1.648;2022-11-04T07:46:02;38.90;;;15.88;;
71108;SDS011;59614;51.012;-1.648;2022-11-04T07:48:29;37.27;;;17.87;;
71108;SDS011;59614;51.012;-1.648;2022-11-04T07:50:56;41.95;;;17.45;;
71108;SDS011;59614;51.012;-1.648;2022-11-04T07:53:23;45.00;;;17.08;;
71108;SDS011;59614;51.012;-1.648;2022-11-04T07:55:50;32.75;;;16.38;;
71108;SDS011;59614;51.012;-1.648;2022-11-04T07:58:18;40.38;;;16.70;;
71108;SDS011;59614;51.012;-1.648;2022-11-04T08:00:45;37.15;;;16.95;;
71108;SDS011;59614;51.012;-1.648;2022-11-04T08:03:10;45.88;;;16.85;;
71108;SDS011;59614;51.012;-1.648;2022-11-04T08:05:36;37.42;;;16.63;;
71108;SDS011;59614;51.012;-1.648;2022-11-04T08:08:02;38.85;;;17.15;;
71108;SDS011;59614;51.012;-1.648;2022-11-04T08:10:27;43.70;;;17.60;;
71108;SDS011;59614;51.012;-1.648;2022-11-04T08:12:53;54.42;;;18.38;;
71108;SDS011;59614;51.012;-1.648;2022-11-04T08:15:18;38.65;;;16.63;;
71108;SDS011;59614;51.012;-1.648;2022-11-04T08:17:44;44.22;;;16.92;;
71108;SDS011;59614;51.012;-1.648;2022-11-04T08:20:09;32.47;;;15.90;;
71108;SDS011;59614;51.012;-1.648;2022-11-04T08:22:36;33.80;;;15.38;;
71108;SDS011;59614;51.012;-1.648;2022-11-04T08:25:01;39.15;;;15.43;;
71108;SDS011;59614;51.012;-1.648;2022-11-04T08:27:26;44.90;;;15.82;;
71108;SDS011;59614;51.012;-1.648;2022-11-04T08:29:52;34.58;;;14.88;;
71108;SDS011;59614;51.012;-1.648;2022-11-04T08:32:17;37.88;;;14.88;;
71108;SDS011;59614;51.012;-1.648;2022-11-04T08:34:43;35.55;;;14.35;;
71108;SDS011;59614;51.012;-1.648;2022-11-04T08:37:12;38.75;;;14.20;;
71108;SDS011;59614;51.012;-1.648;2022-11-04T08:39:39;45.63;;;14.38;;
71108;SDS011;59614;51.012;-1.648;2022-11-04T08:42:05;36.55;;;14.32;;
71108;SDS011;59614;51.012;-1.648;2022-11-04T08:44:31;36.85;;;13.68;;
71108;SDS011;59614;51.012;-1.648;2022-11-04T08:46:58;37.15;;;13.15;;
71108;SDS011;59614;51.012;-1.648;2022-11-04T08:49:24;34.25;;;12.43;;
71108;SDS011;59614;51.012;-1.648;2022-11-04T08:51:51;26.45;;;12.07;;
71108;SDS011;59614;51.012;-1.648;2022-11-04T08:54:24;26.23;;;11.43;;
71108;SDS011;59614;51.012;-1.648;2022-11-04T08:56:51;25.45;;;12.05;;
71108;SDS011;59614;51.012;-1.648;2022-11-04T08:59:17;36.03;;;11.82;;
71108;SDS011;59614;51.012;-1.648;2022-11-04T09:01:44;28.08;;;11.52;;
71108;SDS011;59614;51.012;-1.648;2022-11-04T09:04:10;28.92;;;10.82;;
71108;SDS011;59614;51.012;-1.648;2022-11-04T09:06:38;35.20;;;11.20;;
71108;SDS011;59614;51.012;-1.648;2022-11-04T09:09:07;28.08;;;10.63;;
71108;SDS011;59614;51.012;-1.648;2022-11-04T09:11:35;34.67;;;11.88;;
71108;SDS011;59614;51.012;-1.648;2022-11-04T09:14:03;31.98;;;10.57;;
71108;SDS011;59614;51.012;-1.648;2022-11-04T09:16:31;28.42;;;10.52;;
71108;SDS011;59614;51.012;-1.648;2022-11-04T09:18:57;26.67;;;10.93;;
71108;SDS011;59614;51.012;-1.648;2022-11-04T09:21:24;29.60;;;10.57;;
71108;SDS011;59614;51.012;-1.648;2022-11-04T09:23:50;26.30;;;10.18;;
71108;SDS011;59614;51.012;-1.648;2022-11-04T09:26:16;29.77;;;10.75;;
71108;SDS011;59614;51.012;-1.648;2022-11-04T09:28:42;25.98;;;9.73;;
71108;SDS011;59614;51.012;-1.648;2022-11-04T09:31:09;20.15;;;8.45;;
71108;SDS011;59614;51.012;-1.648;2022-11-04T09:33:36;26.98;;;8.60;;
71108;SDS011;59614;51.012;-1.648;2022-11-04T09:36:02;23.65;;;9.18;;
71108;SDS011;59614;51.012;-1.648;2022-11-04T09:38:28;23.92;;;8.80;;
71108;SDS011;59614;51.012;-1.648;2022-11-04T09:40:53;27.05;;;9.00;;
71108;SDS011;59614;51.012;-1.648;2022-11-04T09:46:15;18.75;;;7.70;;
71108;SDS011;59614;51.012;-1.648;2022-11-04T09:48:46;28.00;;;8.38;;
71108;SDS011;59614;51.012;-1.648;2022-11-04T09:51:15;23.85;;;7.65;;
71108;SDS011;59614;51.012;-1.648;2022-11-04T09:53:47;23.45;;;7.75;;
71108;SDS011;59614;51.012;-1.648;2022-11-04T09:58:56;22.40;;;7.03;;
71108;SDS011;59614;51.012;-1.648;2022-11-04T10:01:31;14.18;;;6.47;;
71108;SDS011;59614;51.012;-1.648;2022-11-04T10:04:26;25.27;;;6.93;;
71108;SDS011;59614;51.012;-1.648;2022-11-04T10:09:33;21.75;;;5.93;;
71108;SDS011;59614;51.012;-1.648;2022-11-04T10:12:33;16.15;;;5.18;;
71108;SDS011;59614;51.012;-1.648;2022-11-04T10:23:22;17.67;;;5.30;;
71108;SDS011;59614;51.012;-1.648;2022-11-04T10:29:00;11.20;;;4.22;;
71108;SDS011;59614;51.012;-1.648;2022-11-04T10:31:29;13.30;;;4.30;;
71108;SDS011;59614;51.012;-1.648;2022-11-04T10:33:58;13.27;;;3.97;;
71108;SDS011;59614;51.012;-1.648;2022-11-04T10:36:33;14.02;;;4.03;;
71108;SDS011;59614;51.012;-1.648;2022-11-04T10:39:01;13.02;;;4.15;;
71108;SDS011;59614;51.012;-1.648;2022-11-04T10:41:35;17.83;;;3.78;;
71108;SDS011;59614;51.012;-1.648;2022-11-04T10:44:21;18.77;;;3.58;;
71108;SDS011;59614;51.012;-1.648;2022-11-04T10:52:23;8.63;;;2.95;;
71108;SDS011;59614;51.012;-1.648;2022-11-04T10:54:48;7.55;;;2.80;;
71108;SDS011;59614;51.012;-1.648;2022-11-04T10:57:21;9.98;;;2.90;;
71108;SDS011;59614;51.012;-1.648;2022-11-04T10:59:53;11.80;;;3.35;;
71108;SDS011;59614;51.012;-1.648;2022-11-04T11:05:11;9.23;;;2.72;;
71108;SDS011;59614;51.012;-1.648;2022-11-04T11:07:39;11.65;;;3.00;;
71108;SDS011;59614;51.012;-1.648;2022-11-04T11:10:05;11.30;;;3.25;;
71108;SDS011;59614;51.012;-1.648;2022-11-04T11:12:40;13.15;;;2.60;;
71108;SDS011;59614;51.012;-1.648;2022-11-04T11:15:33;11.43;;;2.97;;
71108;SDS011;59614;51.012;-1.648;2022-11-04T11:20:46;7.68;;;2.58;;
71108;SDS011;59614;51.012;-1.648;2022-11-04T11:23:34;11.10;;;2.83;;
71108;SDS011;59614;51.012;-1.648;2022-11-04T11:26:05;10.98;;;2.85;;
71108;SDS011;59614;51.012;-1.648;2022-11-04T11:28:34;8.93;;;2.63;;
71108;SDS011;59614;51.012;-1.648;2022-11-04T11:31:08;5.72;;;2.08;;
71108;SDS011;59614;51.012;-1.648;2022-11-04T11:33:47;8.93;;;2.13;;
71108;SDS011;59614;51.012;-1.648;2022-11-04T11:36:21;9.85;;;2.30;;
71108;SDS011;59614;51.012;-1.648;2022-11-04T11:39:00;10.90;;;2.83;;
71108;SDS011;59614;51.012;-1.648;2022-11-04T11:41:28;9.85;;;2.70;;
71108;SDS011;59614;51.012;-1.648;2022-11-04T11:44:40;11.70;;;3.10;;
71108;SDS011;59614;51.012;-1.648;2022-11-04T11:47:08;11.60;;;3.08;;
71108;SDS011;59614;51.012;-1.648;2022-11-04T11:49:40;12.95;;;3.13;;
71108;SDS011;59614;51.012;-1.648;2022-11-04T11:55:05;9.25;;;2.60;;
71108;SDS011;59614;51.012;-1.648;2022-11-04T11:57:51;7.53;;;2.22;;
71108;SDS011;59614;51.012;-1.648;2022-11-04T12:00:30;8.93;;;2.75;;
71108;SDS011;59614;51.012;-1.648;2022-11-04T12:10:54;12.15;;;2.20;;
71108;SDS011;59614;51.012;-1.648;2022-11-04T12:13:27;12.20;;;2.20;;
71108;SDS011;59614;51.012;-1.648;2022-11-04T12:21:23;10.93;;;2.30;;
71108;SDS011;59614;51.012;-1.648;2022-11-04T12:30:17;8.43;;;1.90;;
71108;SDS011;59614;51.012;-1.648;2022-11-04T12:32:52;6.60;;;1.77;;
71108;SDS011;59614;51.012;-1.648;2022-11-04T12:38:22;6.63;;;1.80;;
71108;SDS011;59614;51.012;-1.648;2022-11-04T12:41:28;7.53;;;2.00;;
71108;SDS011;59614;51.012;-1.648;2022-11-04T12:53:08;7.97;;;2.42;;
71108;SDS011;59614;51.012;-1.648;2022-11-04T13:01:13;5.95;;;1.83;;
71108;SDS011;59614;51.012;-1.648;2022-11-04T13:04:13;8.90;;;1.95;;
71108;SDS011;59614;51.012;-1.648;2022-11-04T13:06:49;7.47;;;1.98;;
71108;SDS011;59614;51.012;-1.648;2022-11-04T13:12:11;8.98;;;2.33;;
71108;SDS011;59614;51.012;-1.648;2022-11-04T13:14:57;7.70;;;1.90;;
71108;SDS011;59614;51.012;-1.648;2022-11-04T13:17:36;5.95;;;1.77;;
71108;SDS011;59614;51.012;-1.648;2022-11-04T13:20:05;5.85;;;1.67;;
71108;SDS011;59614;51.012;-1.648;2022-11-04T13:22:42;2.92;;;1.40;;
71108;SDS011;59614;51.012;-1.648;2022-11-04T13:28:09;6.38;;;1.80;;
71108;SDS011;59614;51.012;-1.648;2022-11-04T13:44:36;4.93;;;1.88;;
71108;SDS011;59614;51.012;-1.648;2022-11-04T13:47:10;8.10;;;2.05;;
71108;SDS011;59614;51.012;-1.648;2022-11-04T13:49:40;14.77;;;2.25;;
71108;SDS011;59614;51.012;-1.648;2022-11-04T13:52:07;10.18;;;2.30;;
71108;SDS011;59614;51.012;-1.648;2022-11-04T13:54:37;22.50;;;2.83;;
71108;SDS011;59614;51.012;-1.648;2022-11-04T13:57:08;6.95;;;2.03;;
71108;SDS011;59614;51.012;-1.648;2022-11-04T14:04:36;8.48;;;2.13;;
71108;SDS011;59614;51.012;-1.648;2022-11-04T14:07:03;16.63;;;2.10;;
71108;SDS011;59614;51.012;-1.648;2022-11-04T14:09:48;6.32;;;1.83;;
71108;SDS011;59614;51.012;-1.648;2022-11-04T14:12:17;9.68;;;2.08;;
71108;SDS011;59614;51.012;-1.648;2022-11-04T14:22:46;10.50;;;2.15;;
71108;SDS011;59614;51.012;-1.648;2022-11-04T14:30:52;13.57;;;2.10;;
71108;SDS011;59614;51.012;-1.648;2022-11-04T14:38:43;7.07;;;2.00;;
71108;SDS011;59614;51.012;-1.648;2022-11-04T14:53:18;6.20;;;2.50;;
71108;SDS011;59614;51.012;-1.648;2022-11-04T14:55:18;7.50;;;2.03;;
71108;SDS011;59614;51.012;-1.648;2022-11-04T14:57:50;6.53;;;2.03;;
71108;SDS011;59614;51.012;-1.648;2022-11-04T15:02:47;6.22;;;2.00;;
71108;SDS011;59614;51.012;-1.648;2022-11-04T15:05:25;7.60;;;2.15;;
71108;SDS011;59614;51.012;-1.648;2022-11-04T15:07:53;7.70;;;2.25;;
71108;SDS011;59614;51.012;-1.648;2022-11-04T15:12:46;8.02;;;2.28;;
71108;SDS011;59614;51.012;-1.648;2022-11-04T15:18:03;8.68;;;2.28;;
71108;SDS011;59614;51.012;-1.648;2022-11-04T15:20:35;6.30;;;2.25;;
71108;SDS011;59614;51.012;-1.648;2022-11-04T15:25:52;7.38;;;2.67;;
71108;SDS011;59614;51.012;-1.648;2022-11-04T15:28:19;6.45;;;2.63;;
71108;SDS011;59614;51.012;-1.648;2022-11-04T15:31:00;7.95;;;2.40;;
71108;SDS011;59614;51.012;-1.648;2022-11-04T15:33:30;8.82;;;2.83;;
71108;SDS011;59614;51.012;-1.648;2022-11-04T15:36:01;7.55;;;3.58;;
71108;SDS011;59614;51.012;-1.648;2022-11-04T15:38:27;6.82;;;2.60;;
71108;SDS011;59614;51.012;-1.648;2022-11-04T15:40:53;8.52;;;2.38;;
71108;SDS011;59614;51.012;-1.648;2022-11-04T15:43:40;10.98;;;2.38;;
71108;SDS011;59614;51.012;-1.648;2022-11-04T15:46:08;11.75;;;2.30;;
71108;SDS011;59614;51.012;-1.648;2022-11-04T15:48:41;7.35;;;2.20;;
71108;SDS011;59614;51.012;-1.648;2022-11-04T15:51:11;5.43;;;2.08;;
71108;SDS011;59614;51.012;-1.648;2022-11-04T15:56:17;8.50;;;3.53;;
71108;SDS011;59614;51.012;-1.648;2022-11-04T15:58:45;9.93;;;3.22;;
71108;SDS011;59614;51.012;-1.648;2022-11-04T16:01:14;8.65;;;3.10;;
71108;SDS011;59614;51.012;-1.648;2022-11-04T16:03:49;10.82;;;4.07;;
71108;SDS011;59614;51.012;-1.648;2022-11-04T16:06:16;10.13;;;5.20;;
71108;SDS011;59614;51.012;-1.648;2022-11-04T16:08:41;12.80;;;4.90;;
71108;SDS011;59614;51.012;-1.648;2022-11-04T16:11:17;13.18;;;5.10;;
71108;SDS011;59614;51.012;-1.648;2022-11-04T16:13:44;7.28;;;3.40;;
71108;SDS011;59614;51.012;-1.648;2022-11-04T16:16:23;6.50;;;2.80;;
71108;SDS011;59614;51.012;-1.648;2022-11-04T16:18:54;11.32;;;3.70;;
71108;SDS011;59614;51.012;-1.648;2022-11-04T16:21:34;11.70;;;4.00;;
71108;SDS011;59614;51.012;-1.648;2022-11-04T16:26:35;11.25;;;2.90;;
71108;SDS011;59614;51.012;-1.648;2022-11-04T16:29:05;11.13;;;3.70;;
71108;SDS011;59614;51.012;-1.648;2022-11-04T16:31:34;14.88;;;4.38;;
71108;SDS011;59614;51.012;-1.648;2022-11-04T16:34:01;13.10;;;5.10;;
71108;SDS011;59614;51.012;-1.648;2022-11-04T16:36:27;11.70;;;5.05;;
71108;SDS011;59614;51.012;-1.648;2022-11-04T16:38:57;9.32;;;4.72;;
71108;SDS011;59614;51.012;-1.648;2022-11-04T16:41:24;23.08;;;7.53;;
71108;SDS011;59614;51.012;-1.648;2022-11-04T16:43:52;15.90;;;5.18;;
71108;SDS011;59614;51.012;-1.648;2022-11-04T16:46:19;10.40;;;5.13;;
71108;SDS011;59614;51.012;-1.648;2022-11-04T16:48:46;15.73;;;4.80;;
71108;SDS011;59614;51.012;-1.648;2022-11-04T16:51:16;10.23;;;4.25;;
71108;SDS011;59614;51.012;-1.648;2022-11-04T16:53:43;21.08;;;4.43;;
71108;SDS011;59614;51.012;-1.648;2022-11-04T16:56:12;9.40;;;4.65;;
71108;SDS011;59614;51.012;-1.648;2022-11-04T16:58:38;8.52;;;4.57;;
71108;SDS011;59614;51.012;-1.648;2022-11-04T17:01:04;12.57;;;3.60;;
71108;SDS011;59614;51.012;-1.648;2022-11-04T17:03:30;8.88;;;3.65;;
71108;SDS011;59614;51.012;-1.648;2022-11-04T17:05:55;11.40;;;4.15;;
71108;SDS011;59614;51.012;-1.648;2022-11-04T17:08:22;15.55;;;4.88;;
71108;SDS011;59614;51.012;-1.648;2022-11-04T17:10:48;19.67;;;6.70;;
71108;SDS011;59614;51.012;-1.648;2022-11-04T17:13:14;17.77;;;6.35;;
71108;SDS011;59614;51.012;-1.648;2022-11-04T17:15:40;15.48;;;6.25;;
71108;SDS011;59614;51.012;-1.648;2022-11-04T17:18:09;20.10;;;8.02;;
71108;SDS011;59614;51.012;-1.648;2022-11-04T17:20:38;18.80;;;8.73;;
71108;SDS011;59614;51.012;-1.648;2022-11-04T17:23:05;20.73;;;10.55;;
71108;SDS011;59614;51.012;-1.648;2022-11-04T17:25:30;20.17;;;9.57;;
71108;SDS011;59614;51.012;-1.648;2022-11-04T17:27:56;12.60;;;6.35;;
71108;SDS011;59614;51.012;-1.648;2022-11-04T17:30:22;18.65;;;5.35;;
71108;SDS011;59614;51.012;-1.648;2022-11-04T17:32:48;17.73;;;6.72;;
71108;SDS011;59614;51.012;-1.648;2022-11-04T17:35:14;17.42;;;6.70;;
71108;SDS011;59614;51.012;-1.648;2022-11-04T17:37:41;16.93;;;5.87;;
71108;SDS011;59614;51.012;-1.648;2022-11-04T17:40:09;9.98;;;4.90;;